Latest Weather Observations for Biloela

IDQ60801

Issued at 11:43 pm EST Tuesday 28 January 2020 (issued every 10 minutes, with the page automatically refreshed every 10 minutes)

About weather observations | Map of weather stations | Latest weather observations for QLD | Other Formats
Station Details ID: 039089 Name: THANGOOL AIRPORT Lat: -24.49 Lon: 150.57 Height: 193.1 m
Data from the previous 72 hours. | See also: Recent months at Biloela
Date/Time
EST
Temp
°C
App
Temp
°C
Dew
Point
°C
Rel
Hum
%
Delta-T
°C
Wind Press
QNH
hPa
Press
MSL
hPa
Rain since
9am
mm
Dir  Spd
km/h
Gust
km/h
Spd
kts
Gust
kts
28/11:30pm 23.7 26.8 21.0 85 1.8 S 6 7 3 4 1014.3 1013.1 0.0
28/11:00pm 24.8 27.3 21.1 80 2.5 NE 9 11 5 6 1014.4 1013.2 0.0
28/10:30pm 25.0 27.5 21.1 79 2.6 NE 9 15 5 8 1014.6 1013.4 0.0
28/10:00pm 25.0 27.8 20.9 78 2.7 ENE 7 11 4 6 1014.5 1013.3 0.0
28/09:30pm 25.6 27.4 21.1 76 3.0 NE 13 17 7 9 1014.2 1013.0 0.0
28/09:00pm 25.8 28.2 20.8 74 3.3 NE 9 13 5 7 1014.0 1012.8 0.0
28/08:30pm 26.2 27.7 20.5 71 3.8 ENE 13 19 7 10 1014.0 1012.8 0.0
28/08:00pm 26.4 27.5 20.5 70 3.9 ENE 15 20 8 11 1013.6 1012.4 0.0
28/07:30pm 26.6 26.7 20.4 69 4.1 NE 20 26 11 14 1013.2 1012.0 0.0
28/07:00pm 27.1 27.6 21.2 70 3.9 NE 20 32 11 17 1012.6 1011.3 0.0
28/06:30pm 28.5 29.5 21.0 64 5.0 NNE 17 22 9 12 1011.9 1010.7 0.0
28/06:00pm 29.3 29.7 20.7 59 5.7 NE 19 26 10 14 1011.2 1010.0 0.0
28/05:30pm 30.6 32.4 21.1 57 6.4 NE 13 20 7 11 1010.8 1009.6 0.0
28/05:00pm 30.9 31.9 21.1 56 6.6 NE 17 22 9 12 1010.5 1009.3 0.0
28/04:30pm 30.3 31.6 20.8 56 6.4 N 15 19 8 10 1010.4 1009.2 0.0
28/04:00pm 29.8 30.1 20.4 57 6.3 ENE 19 33 10 18 1010.7 1009.5 0.0
28/03:30pm 31.8 33.1 19.4 47 8.2 ESE 11 20 6 11 1010.7 1009.5 0.0
28/03:00pm 32.1 34.0 19.7 48 8.2 NE 9 17 5 9 1010.9 1009.7 0.0
28/02:30pm 31.8 34.4 20.4 51 7.6 ENE 7 17 4 9 1011.3 1010.1 0.0
28/02:00pm 31.1 33.4 20.7 54 7.0 NE 9 15 5 8 1011.7 1010.5 0.0
28/01:30pm 28.9 29.1 20.1 59 5.8 ENE 19 28 10 15 1012.3 1011.0 0.0
28/01:00pm 29.8 31.6 20.4 57 6.3 ESE 11 15 6 8 1012.6 1011.3 0.0
28/12:30pm 29.5 31.3 20.4 58 6.1 ESE 11 17 6 9 1012.7 1011.4 0.0
28/12:00pm 29.4 30.8 20.3 58 6.0 ESE 13 20 7 11 1012.8 1011.6 0.0
28/11:30am 29.4 30.4 20.3 58 6.0 ESE 15 22 8 12 1013.0 1011.8 0.0
28/11:00am 29.7 32.1 21.6 61 5.5 SE 11 20 6 11 1013.2 1012.0 0.0
28/10:30am 29.0 30.6 21.5 64 5.1 ESE 15 22 8 12 1013.3 1012.1 0.0
28/10:00am 28.6 30.6 21.6 66 4.7 ESE 13 20 7 11 1013.5 1012.3 0.0
28/09:30am 27.1 28.4 20.9 69 4.1 ESE 15 22 8 12 1013.5 1012.3 0.0
28/09:00am 26.4 27.6 20.7 71 3.8 ESE 15 24 8 13 1013.3 1012.1 1.2
28/08:30am 26.3 28.1 21.1 73 3.5 ESE 13 22 7 12 1013.3 1012.1 1.2
28/08:00am 25.6 27.1 21.3 77 2.9 E 15 19 8 10 1013.3 1012.1 1.2
28/07:30am 24.9 26.6 21.0 79 2.6 ESE 13 19 7 10 1013.0 1011.8 1.2
28/07:00am 24.1 26.8 21.4 85 1.8 ESE 9 17 5 9 1013.0 1011.8 1.2
28/06:30am 22.7 25.1 20.8 89 1.2 ESE 9 15 5 8 1013.0 1011.8 1.2
28/06:00am 22.3 24.7 20.8 91 1.0 ESE 9 11 5 6 1012.6 1011.3 1.2
28/05:30am 22.0 24.8 20.5 91 1.0 SE 6 7 3 4 1012.4 1011.1 1.2
28/05:00am 22.4 25.2 20.5 89 1.2 ESE 6 7 3 4 1012.2 1010.9 1.2
28/04:30am 22.5 25.3 20.4 88 1.4 SE 6 9 3 5 1011.9 1010.7 1.2
28/04:00am 22.7 26.2 20.4 87 1.5 SE 2 9 1 5 1011.9 1010.7 1.2
28/03:30am 23.1 25.4 20.6 86 1.6 ESE 9 11 5 6 1011.9 1010.7 1.2
28/03:00am 23.2 25.9 20.7 86 1.6 ESE 7 11 4 6 1011.8 1010.6 1.2
28/02:30am 23.2 26.4 21.3 89 1.3 ESE 6 11 3 6 1012.2 1010.9 1.2
28/02:00am 22.8 27.1 21.1 90 1.1 CALM 0 6 0 3 1012.5 1011.2 1.2
28/01:30am 22.9 27.2 21.2 90 1.1 CALM 0 0 0 0 1012.7 1011.4 1.2
28/01:00am 22.8 26.7 21.1 90 1.1 SSE 2 6 1 3 1012.9 1011.7 1.2
28/12:30am 22.9 26.3 21.7 93 0.8 SSE 6 9 3 5 1013.1 1011.9 1.2
28/12:00am 23.0 27.7 22.0 94 0.7 CALM 0 0 0 0 1013.2 1012.0 1.2
 
Date/Time
EST
Temp
°C
App
Temp
°C
Dew
Point
°C
Rel
Hum
%
Delta-T
°C
Wind Press
QNH
hPa
Press
MSL
hPa
Rain since
9am
mm
Dir  Spd
km/h
Gust
km/h
Spd
kts
Gust
kts
27/11:30pm 23.1 27.8 21.9 93 0.8 CALM 0 0 0 0 1013.4 1012.2 1.2
27/11:00pm 23.5 28.4 22.3 93 0.8 CALM 0 0 0 0 1013.4 1012.2 1.2
27/10:30pm 23.5 28.3 22.1 92 0.9 CALM 0 0 0 0 1013.8 1012.6 1.2
27/10:00pm 23.8 27.9 22.2 91 1.1 SE 4 7 2 4 1013.7 1012.5 1.2
27/09:30pm 23.7 28.1 22.1 91 1.1 SE 2 7 1 4 1013.7 1012.5 1.2
27/09:00pm 23.8 28.6 22.1 90 1.1 CALM 0 6 0 3 1013.5 1012.3 1.2
27/08:30pm 23.9 27.6 22.2 90 1.1 SE 6 9 3 5 1013.4 1012.2 1.2
27/08:00pm 24.0 27.6 22.1 89 1.3 ESE 6 7 3 4 1013.2 1012.0 1.2
27/07:30pm 24.1 28.0 22.5 91 1.1 ESE 6 7 3 4 1012.8 1011.6 1.2
27/07:00pm 24.0 28.9 22.4 91 1.1 CALM 0 0 0 0 1012.5 1011.2 1.2
27/06:30pm 23.9 27.1 22.3 91 1.1 ESE 9 11 5 6 1012.0 1010.8 1.2
27/06:00pm 24.3 26.4 22.4 89 1.3 E 15 19 8 10 1011.9 1010.7 1.2
27/05:30pm 24.5 29.3 22.8 90 1.2 SE 2 11 1 6 1011.6 1010.4 1.2
27/05:00pm 24.5 28.3 22.4 88 1.4 SW 6 7 3 4 1011.6 1010.4 1.2
27/04:30pm 24.6 28.1 22.1 86 1.7 SSW 7 9 4 5 1011.7 1010.5 1.2
27/04:00pm 24.7 27.8 21.0 80 2.5 SSE 6 7 3 4 1011.6 1010.4 1.2
27/03:30pm 24.5 25.4 20.8 80 2.4 NE 17 24 9 13 1011.7 1010.5 1.2
27/03:00pm 25.3 26.8 22.0 82 2.2 NE 17 24 9 13 1011.8 1010.6 1.2
27/02:30pm 24.4 28.0 23.0 92 1.0 SE 9 15 5 8 1011.9 1010.7 1.0
27/02:00pm 25.2 28.4 22.3 84 2.0 ESE 9 11 5 6 1011.9 1010.7 1.0
27/01:46pm 25.3 28.7 22.0 82 2.2 ENE 7 11 4 6 1012.0 1010.8 1.0
27/01:30pm 25.1 25.5 21.8 82 2.2 ENE 22 30 12 16 1012.2 1010.9 0.4
27/01:00pm 28.6 30.9 21.4 65 4.8 SSE 11 17 6 9 1012.3 1011.0 0.2
27/12:30pm 28.7 30.7 20.7 62 5.3 ESE 11 17 6 9 1012.6 1011.3 0.0
27/12:00pm 29.1 30.2 20.5 59 5.7 ENE 15 20 8 11 1012.9 1011.7 0.0
27/11:30am 27.4 29.1 21.0 68 4.3 NE 13 20 7 11 1013.2 1012.0 0.0
27/11:00am 25.2 27.2 21.5 80 2.5 NE 13 20 7 11 1013.7 1012.5 0.0
27/10:52am 24.9 26.4 21.2 80 2.5 ENE 15 20 8 11 1013.7 1012.5 0.0
27/10:33am 24.6 25.0 20.9 80 2.4 ENE 20 28 11 15 1013.8 1012.6 0.0
27/10:30am 24.7 25.1 21.0 80 2.4 ENE 20 30 11 16 1013.8 1012.6 0.0
27/10:00am 26.5 29.5 20.8 71 3.8 SE 6 13 3 7 1013.5 1012.3 0.0
27/09:30am 27.3 29.4 20.1 64 4.7 SE 9 15 5 8 1013.4 1012.2 0.0
27/09:00am 27.1 29.4 20.7 68 4.2 E 9 20 5 11 1013.5 1012.3 0.0
27/08:30am 26.5 29.0 20.3 68 4.1 ESE 7 11 4 6 1013.5 1012.3 0.0
27/08:00am 26.4 28.7 20.7 71 3.8 E 9 11 5 6 1013.4 1012.2 0.0
27/07:30am 25.2 28.3 21.5 80 2.5 ESE 7 11 4 6 1013.3 1012.1 0.0
27/07:00am 24.0 27.0 21.3 85 1.8 ESE 7 11 4 6 1013.1 1011.9 0.0
27/06:30am 23.4 26.7 21.5 89 1.3 E 6 9 3 5 1012.8 1011.6 0.0
27/06:00am 23.1 26.1 21.2 89 1.3 ESE 7 11 4 6 1012.5 1011.2 0.0
27/05:30am 23.1 26.2 21.0 88 1.4 ESE 6 9 3 5 1012.0 1010.8 0.0
27/05:00am 23.1 27.1 20.6 86 1.6 CALM 0 0 0 0 1011.6 1010.4 0.0
27/04:30am 23.2 25.8 20.5 85 1.8 E 7 11 4 6 1011.5 1010.3 0.0
27/04:00am 23.1 27.1 20.6 86 1.6 CALM 0 7 0 4 1011.5 1010.3 0.0
27/03:30am 22.7 25.5 20.4 87 1.5 E 6 7 3 4 1011.3 1010.1 0.0
27/03:00am 22.7 25.5 20.4 87 1.5 E 6 7 3 4 1011.4 1010.2 0.0
27/02:30am 22.8 25.9 20.3 86 1.6 ESE 4 6 2 3 1011.6 1010.4 0.0
27/02:00am 22.9 25.5 20.1 84 1.8 ESE 6 9 3 5 1011.9 1010.7 0.0
27/01:30am 23.1 26.4 19.9 82 2.1 ESE 2 7 1 4 1012.4 1011.1 0.0
27/01:00am 23.1 26.8 19.9 82 2.1 CALM 0 6 0 3 1012.8 1011.6 0.0
27/12:30am 23.4 27.2 20.2 82 2.1 CALM 0 0 0 0 1012.9 1011.7 0.0
27/12:00am 23.7 26.9 20.4 82 2.2 E 4 7 2 4 1013.0 1011.8 0.0
 
Date/Time
EST
Temp
°C
App
Temp
°C
Dew
Point
°C
Rel
Hum
%
Delta-T
°C
Wind Press
QNH
hPa
Press
MSL
hPa
Rain since
9am
mm
Dir  Spd
km/h
Gust
km/h
Spd
kts
Gust
kts
26/11:30pm 23.8 26.6 20.5 82 2.2 ENE 6 7 3 4 1013.4 1012.2 0.0
26/11:00pm 24.2 27.7 20.3 79 2.6 E 2 7 1 4 1013.7 1012.5 0.0
26/10:30pm 25.0 27.2 20.5 76 3.0 NE 9 13 5 7 1013.7 1012.5 0.0
26/10:00pm 25.2 27.3 20.2 74 3.3 NE 9 13 5 7 1013.7 1012.5 0.0
26/09:30pm 25.9 27.4 20.5 72 3.6 NE 13 17 7 9 1013.5 1012.3 0.0
26/09:00pm 26.2 27.2 20.3 70 3.9 NE 15 19 8 10 1013.2 1012.0 0.0
26/08:30pm 26.6 28.0 20.4 69 4.1 NE 13 19 7 10 1012.8 1011.6 0.0
26/08:00pm 27.0 27.8 20.6 68 4.2 ENE 17 22 9 12 1012.4 1011.1 0.0
26/07:30pm 27.5 27.5 20.1 64 4.9 NE 20 30 11 16 1011.6 1010.4 0.0
26/07:00pm 28.2 28.7 20.0 61 5.4 NE 17 26 9 14 1011.0 1009.8 0.0
26/06:30pm 29.1 28.7 19.4 55 6.4 NE 20 30 11 16 1010.4 1009.2 0.0
26/06:00pm 30.1 29.7 18.8 50 7.4 NE 19 26 10 14 1010.0 1008.8 0.0
26/05:30pm 31.1 30.7 18.8 48 8.0 NE 19 24 10 13 1009.8 1008.6 0.0
26/05:00pm 31.3 32.0 19.6 49 7.7 NE 15 22 8 12 1009.6 1008.4 0.0
26/04:30pm 31.2 31.1 19.5 49 7.7 ENE 19 24 10 13 1009.6 1008.4 0.0
26/04:00pm 31.5 32.6 20.4 51 7.4 ENE 15 20 8 11 1009.7 1008.5 0.0
26/03:30pm 31.9 31.8 19.5 47 8.2 ENE 19 24 10 13 1009.9 1008.7 0.0
26/03:00pm 31.5 31.4 19.5 49 7.9 NE 19 33 10 18 1010.1 1008.9 0.0
26/02:30pm 31.6 31.6 20.2 50 7.6 NE 20 30 11 16 1010.4 1009.2 0.0
26/02:00pm 31.5 32.6 18.8 46 8.3 NE 11 19 6 10 1010.7 1009.5 0.0
26/01:30pm 32.9 35.3 18.7 43 9.3 ESE 4 13 2 7 1011.0 1009.8 0.0
26/01:00pm 31.5 31.8 18.8 46 8.3 E 15 22 8 12 1011.6 1010.4 0.0
26/12:30pm 32.0 33.7 19.3 47 8.4 NE 9 19 5 10 1012.0 1010.8 0.0
26/12:00pm 31.4 32.0 19.4 49 7.9 NE 15 26 8 14 1012.4 1011.1 0.0
26/11:30am 30.7 31.7 19.4 51 7.4 NE 13 20 7 11 1012.8 1011.6 0.0
26/11:00am 30.4 30.9 20.0 53 6.9 NE 17 22 9 12 1013.3 1012.1 0.0
26/10:30am 29.3 30.1 19.0 53 6.7 NE 13 19 7 10 1013.5 1012.3 0.0
26/10:00am 28.9 30.7 20.4 60 5.6 NE 11 20 6 11 1013.7 1012.5 0.0
26/09:30am 28.7 30.8 20.2 60 5.6 ENE 9 17 5 9 1013.7 1012.5 0.0
26/09:00am 27.4 30.8 20.2 65 4.7 WSW 2 7 1 4 1013.6 1012.4 7.6
26/08:30am 26.8 29.7 20.6 69 4.1 SE 6 11 3 6 1013.3 1012.1 7.6
26/08:00am 26.4 29.0 21.2 73 3.5 E 9 13 5 7 1013.3 1012.1 7.6
26/07:30am 25.2 27.9 21.3 79 2.6 ESE 9 11 5 6 1013.3 1012.1 7.6
26/07:00am 24.6 27.9 21.9 85 1.8 E 7 9 4 5 1012.9 1011.7 7.6
26/06:30am 23.3 26.7 21.7 91 1.1 ESE 6 9 3 5 1012.8 1011.6 7.6
26/06:00am 22.3 26.9 21.8 97 0.3 CALM 0 0 0 0 1012.6 1011.3 7.6
26/05:30am 21.7 26.0 21.2 97 0.3 CALM 0 0 0 0 1012.4 1011.1 7.6
26/05:00am 21.9 26.3 21.4 97 0.3 CALM 0 0 0 0 1012.2 1010.9 7.6
26/04:30am 22.0 26.3 21.2 95 0.5 CALM 0 0 0 0 1011.8 1010.6 7.6
26/04:00am 22.5 27.1 21.7 95 0.5 CALM 0 0 0 0 1011.6 1010.4 7.6
26/03:30am 22.5 27.0 21.5 94 0.7 CALM 0 0 0 0 1011.4 1010.2 7.6
26/03:00am 22.7 27.3 21.7 94 0.7 CALM 0 0 0 0 1011.4 1010.2 7.6
26/02:30am 22.7 27.3 21.7 94 0.7 CALM 0 0 0 0 1011.5 1010.3 7.6
26/02:00am 23.0 27.6 21.8 93 0.8 CALM 0 0 0 0 1011.9 1010.7 7.6
26/01:30am 23.0 27.5 21.6 92 0.9 CALM 0 0 0 0 1012.2 1010.9 7.6
26/01:00am 23.1 27.8 21.9 93 0.8 CALM 0 0 0 0 1012.4 1011.1 7.6
26/12:30am 23.1 27.8 21.9 93 0.8 CALM 0 0 0 0 1012.7 1011.4 7.6
26/12:00am 23.4 28.2 22.2 93 0.8 CALM 0 0 0 0 1013.0 1011.8 7.6

Other formats

Comma delimited format used in spreadsheet applications
http://www.bom.gov.au/fwo/IDQ60801/IDQ60801.94376.axf

JavaScript Object Notation format (JSON) in row-major order
http://www.bom.gov.au/fwo/IDQ60801/IDQ60801.94376.json

Data quality

Most of these data are generated automatically and are frequently updated. Quality checks on data are not normally performed. It is possible for incorrect values to appear. Refer to information at About Latest Weather Observations and please check the disclaimer before using these data.